createdAt,value
2022-08-11T00:01:29.000Z,5.6
2022-08-11T00:05:02.000Z,5.6
2022-08-11T00:08:34.000Z,7.2
2022-08-11T00:12:07.000Z,5.3
2022-08-11T00:15:40.000Z,5.8
2022-08-11T00:19:14.000Z,6.3
2022-08-11T00:24:04.000Z,5.4
2022-08-11T00:27:37.000Z,5.4
2022-08-11T00:30:28.000Z,6.5
2022-08-11T00:34:01.000Z,10.2
2022-08-11T00:37:56.000Z,6
2022-08-11T00:41:29.000Z,6.3
2022-08-11T00:45:01.000Z,6.8
2022-08-11T00:48:34.000Z,6.5
2022-08-11T00:52:06.000Z,6.2
2022-08-11T00:55:39.000Z,5.8
2022-08-11T00:59:36.000Z,6.2
2022-08-11T01:03:09.000Z,6.1
2022-08-11T01:06:42.000Z,6.1
2022-08-11T01:09:33.000Z,6.6
2022-08-11T01:13:06.000Z,6.7
2022-08-11T01:16:39.000Z,5.9
2022-08-11T01:20:11.000Z,6.3
2022-08-11T01:24:14.000Z,8.2
2022-08-11T01:27:56.000Z,7
2022-08-11T01:31:28.000Z,6.5
2022-08-11T01:35:01.000Z,7.3
2022-08-11T01:38:34.000Z,6.5
2022-08-11T01:42:07.000Z,7.9
2022-08-11T01:45:39.000Z,6.6
2022-08-11T01:48:30.000Z,7
2022-08-11T01:52:08.000Z,7.2
2022-08-11T01:55:41.000Z,7.7
2022-08-11T01:59:14.000Z,9.7
2022-08-11T02:02:46.000Z,7.9
2022-08-11T02:06:19.000Z,8.5
2022-08-11T02:09:54.000Z,7.5
2022-08-11T02:13:28.000Z,7
2022-08-11T02:17:04.000Z,7
2022-08-11T02:20:37.000Z,7.3
2022-08-11T02:24:09.000Z,7
2022-08-11T02:27:01.000Z,6.8
2022-08-11T02:30:45.000Z,7
2022-08-11T02:34:29.000Z,8.2
2022-08-11T02:38:02.000Z,7.7
2022-08-11T02:41:34.000Z,9.6
2022-08-11T02:45:07.000Z,7.3
2022-08-11T02:48:40.000Z,8
2022-08-11T02:52:12.000Z,9.5
2022-08-11T02:55:57.000Z,7.9
2022-08-11T02:59:29.000Z,7.3
2022-08-11T03:03:02.000Z,7.7
2022-08-11T03:05:53.000Z,8.4
2022-08-11T03:09:28.000Z,8.1
2022-08-11T03:13:01.000Z,8
2022-08-11T03:16:33.000Z,8.3
2022-08-11T03:20:07.000Z,10.1
2022-08-11T03:24:04.000Z,7.6
2022-08-11T03:27:39.000Z,9.9
2022-08-11T03:31:17.000Z,7.8
2022-08-11T03:34:49.000Z,8
2022-08-11T03:38:22.000Z,7.7
2022-08-11T03:41:56.000Z,8
2022-08-11T03:44:52.000Z,8
2022-08-11T03:48:25.000Z,8.6
2022-08-11T03:51:57.000Z,8.9
2022-08-11T03:55:30.000Z,7.7
2022-08-11T03:59:03.000Z,8.2
2022-08-11T04:02:35.000Z,10.1
2022-08-11T04:06:08.000Z,8.6
2022-08-11T04:09:40.000Z,8.8
2022-08-11T04:13:13.000Z,8.5
2022-08-11T04:16:45.000Z,9.5
2022-08-11T04:20:18.000Z,9.5
2022-08-11T04:23:09.000Z,9.1
2022-08-11T04:28:17.000Z,8.4
2022-08-11T04:32:03.000Z,10.1
2022-08-11T04:35:36.000Z,8.6
2022-08-11T04:39:15.000Z,8.3
2022-08-11T04:42:48.000Z,8.7
2022-08-11T04:46:21.000Z,12.1
2022-08-11T04:50:03.000Z,8.8
2022-08-11T04:53:36.000Z,9.2
2022-08-11T04:57:09.000Z,10.6
2022-08-11T05:00:41.000Z,10.2
2022-08-11T05:03:32.000Z,11.2
2022-08-11T05:07:05.000Z,10.8
2022-08-11T05:10:38.000Z,11.3
2022-08-11T05:14:10.000Z,9
2022-08-11T05:17:50.000Z,10.9
2022-08-11T05:21:23.000Z,9.1
2022-08-11T05:25:09.000Z,7
2022-08-11T05:30:13.000Z,7.6
2022-08-11T05:33:46.000Z,8.4
2022-08-11T05:38:01.000Z,11.1
2022-08-11T05:41:35.000Z,8.6
2022-08-11T05:44:27.000Z,7.1
2022-08-11T05:48:02.000Z,9.5
2022-08-11T05:51:35.000Z,8
2022-08-11T05:55:22.000Z,6.8
2022-08-11T05:58:54.000Z,6.8
2022-08-11T06:02:27.000Z,6.3
2022-08-11T06:05:59.000Z,6.7
2022-08-11T06:09:48.000Z,8.5
2022-08-11T06:13:43.000Z,6.9
2022-08-11T06:17:16.000Z,7
2022-08-11T06:20:48.000Z,6.1
2022-08-11T06:23:40.000Z,5.8
2022-08-11T06:27:12.000Z,5.9
2022-08-11T06:30:45.000Z,5.7
2022-08-11T06:34:18.000Z,9.2
2022-08-11T06:37:53.000Z,8.7
2022-08-11T06:41:25.000Z,8.3
2022-08-11T06:44:58.000Z,6.8
2022-08-11T06:48:31.000Z,9.7
2022-08-11T06:52:03.000Z,7.4
2022-08-11T06:56:04.000Z,10.7
2022-08-11T06:59:36.000Z,7.3
2022-08-11T07:02:28.000Z,5.8
2022-08-11T07:06:00.000Z,7.4
2022-08-11T07:09:33.000Z,6
2022-08-11T07:13:06.000Z,5.1
2022-08-11T07:17:10.000Z,7.5
2022-08-11T07:20:43.000Z,7
2022-08-11T07:24:15.000Z,5.8
2022-08-11T07:28:27.000Z,5.6
2022-08-11T07:32:00.000Z,5.8
2022-08-11T07:36:07.000Z,6.8
2022-08-11T07:39:40.000Z,4.9
2022-08-11T07:42:31.000Z,8.5
2022-08-11T07:46:04.000Z,6.5
2022-08-11T07:49:37.000Z,7.2
2022-08-11T07:53:09.000Z,5.9
2022-08-11T07:56:49.000Z,6.6
2022-08-11T08:01:20.000Z,5.4
2022-08-11T08:04:53.000Z,5.5
2022-08-11T08:08:35.000Z,7.1
2022-08-11T08:12:12.000Z,5.8
2022-08-11T08:15:49.000Z,5.4
2022-08-11T08:19:21.000Z,4.9
2022-08-11T08:22:12.000Z,7.8
2022-08-11T08:26:04.000Z,4.5
2022-08-11T08:29:42.000Z,4.5
2022-08-11T08:33:15.000Z,4.3
2022-08-11T08:36:47.000Z,6
2022-08-11T08:40:20.000Z,5.3
2022-08-11T08:43:53.000Z,6.2
2022-08-11T08:47:52.000Z,4.3
2022-08-11T08:51:25.000Z,3.7
2022-08-11T08:55:52.000Z,4
2022-08-11T08:59:25.000Z,5.4
2022-08-11T09:02:33.000Z,4.6
2022-08-11T09:06:11.000Z,5
2022-08-11T09:09:44.000Z,4.1
2022-08-11T09:13:17.000Z,5.8
2022-08-11T09:16:50.000Z,3.7
2022-08-11T09:20:22.000Z,5
2022-08-11T09:23:55.000Z,4.8
2022-08-11T09:27:35.000Z,5.1
2022-08-11T09:31:15.000Z,6.7
2022-08-11T09:34:48.000Z,4.8
2022-08-11T09:38:21.000Z,7.2
2022-08-11T09:41:12.000Z,5
2022-08-11T09:44:51.000Z,3.5
2022-08-11T09:48:27.000Z,4.8
2022-08-11T09:52:00.000Z,4.2
2022-08-11T09:55:36.000Z,3.5
2022-08-11T09:59:09.000Z,4.1
2022-08-11T10:02:42.000Z,4.8
2022-08-11T10:06:14.000Z,4.3
2022-08-11T10:09:59.000Z,5.9
2022-08-11T10:13:32.000Z,4
2022-08-11T10:18:15.000Z,3.2
2022-08-11T10:21:06.000Z,3.7
2022-08-11T10:24:39.000Z,5.3
2022-08-11T10:28:12.000Z,5.1
2022-08-11T10:32:05.000Z,3.3
2022-08-11T10:35:57.000Z,4.3
2022-08-11T10:42:36.000Z,4.4
2022-08-11T10:46:23.000Z,5
2022-08-11T10:49:56.000Z,3.7
2022-08-11T10:53:50.000Z,4.8
2022-08-11T10:57:23.000Z,4.6
2022-08-11T11:01:00.000Z,5.2
2022-08-11T11:03:45.000Z,4.6
2022-08-11T11:07:18.000Z,3.4
2022-08-11T11:10:51.000Z,4.1
2022-08-11T11:14:26.000Z,5.4
2022-08-11T11:18:00.000Z,3.6
2022-08-11T11:21:32.000Z,3.5
2022-08-11T11:25:08.000Z,5.3
2022-08-11T11:28:41.000Z,3.9
2022-08-11T11:32:14.000Z,6.7
2022-08-11T11:36:11.000Z,4.4
2022-08-11T11:40:03.000Z,5
2022-08-11T11:42:55.000Z,4.8
2022-08-11T11:46:27.000Z,3.7
2022-08-11T11:50:04.000Z,8.2
2022-08-11T11:53:37.000Z,3.1
2022-08-11T11:57:09.000Z,3.8
2022-08-11T12:00:42.000Z,3.8
2022-08-11T12:04:15.000Z,4.2
2022-08-11T12:07:47.000Z,4.4
2022-08-11T12:11:38.000Z,4.5
2022-08-11T12:15:10.000Z,5.2
2022-08-11T12:19:29.000Z,7
2022-08-11T12:22:21.000Z,5
2022-08-11T12:25:54.000Z,3.8
2022-08-11T12:29:51.000Z,5.3
2022-08-11T12:33:24.000Z,3.9
2022-08-11T12:37:01.000Z,4.2
2022-08-11T12:44:15.000Z,4.7
2022-08-11T12:47:50.000Z,4.1
2022-08-11T12:52:25.000Z,3.7
2022-08-11T12:55:57.000Z,4
2022-08-11T12:59:36.000Z,4.5
2022-08-11T13:02:27.000Z,3.9
2022-08-11T13:06:00.000Z,3.3
2022-08-11T13:09:49.000Z,3.4
2022-08-11T13:13:22.000Z,4.6
2022-08-11T13:17:21.000Z,4.3
2022-08-11T13:21:09.000Z,3.5
2022-08-11T13:24:46.000Z,5.6
2022-08-11T13:28:41.000Z,3.4
2022-08-11T13:32:14.000Z,3.6
2022-08-11T13:35:47.000Z,4.4
2022-08-11T13:40:25.000Z,3.9
2022-08-11T13:43:38.000Z,4.1
2022-08-11T13:47:12.000Z,4
2022-08-11T13:50:45.000Z,6.9
2022-08-11T13:54:18.000Z,3.4
2022-08-11T13:57:51.000Z,4.5
2022-08-11T14:01:51.000Z,3.5
2022-08-11T14:06:30.000Z,3
2022-08-11T14:10:03.000Z,3.3
2022-08-11T14:14:22.000Z,5.8
2022-08-11T14:17:55.000Z,5.3
2022-08-11T14:21:28.000Z,6.4
2022-08-11T14:24:19.000Z,4.5
2022-08-11T14:28:00.000Z,4
2022-08-11T14:32:00.000Z,4.5
2022-08-11T14:35:59.000Z,3.5
2022-08-11T14:39:32.000Z,6.3
2022-08-11T14:43:05.000Z,2.9
2022-08-11T14:46:38.000Z,4
2022-08-11T14:50:10.000Z,4.1
2022-08-11T14:53:45.000Z,5.2
2022-08-11T14:57:24.000Z,3.7
2022-08-11T15:01:21.000Z,4.6
2022-08-11T15:04:13.000Z,4.9
2022-08-11T15:08:01.000Z,4.5
2022-08-11T15:11:49.000Z,5.9
2022-08-11T15:15:22.000Z,6.3
2022-08-11T15:18:54.000Z,7.9
2022-08-11T15:22:27.000Z,4.7
2022-08-11T15:26:00.000Z,7.2
2022-08-11T15:29:33.000Z,7
2022-08-11T15:33:06.000Z,4.2
2022-08-11T15:36:39.000Z,6.5
2022-08-11T15:40:11.000Z,5.5
2022-08-11T15:43:17.000Z,5
2022-08-11T15:47:02.000Z,9.1
2022-08-11T15:50:35.000Z,3.7
2022-08-11T15:54:08.000Z,6.8
2022-08-11T15:57:41.000Z,5.8
2022-08-11T16:01:41.000Z,7
2022-08-11T16:05:14.000Z,4.2
2022-08-11T16:09:12.000Z,4.6
2022-08-11T16:12:47.000Z,6.3
2022-08-11T16:16:20.000Z,2.9
2022-08-11T16:19:53.000Z,4.4
2022-08-11T16:22:44.000Z,3.6
2022-08-11T16:29:08.000Z,3.5
2022-08-11T16:32:41.000Z,3.7
2022-08-11T16:36:13.000Z,5.7
2022-08-11T16:39:46.000Z,3.6
2022-08-11T16:43:19.000Z,3.6
2022-08-11T16:46:52.000Z,3.4
2022-08-11T16:50:36.000Z,4.5
2022-08-11T16:54:10.000Z,5.5
2022-08-11T16:57:51.000Z,4.7
2022-08-11T17:01:24.000Z,3.8
2022-08-11T17:04:15.000Z,3.6
2022-08-11T17:07:55.000Z,2.7
2022-08-11T17:11:27.000Z,3
2022-08-11T17:15:00.000Z,3.1
2022-08-11T17:18:33.000Z,5.1
2022-08-11T17:22:42.000Z,4.6
2022-08-11T17:26:15.000Z,4.8
2022-08-11T17:29:47.000Z,3
2022-08-11T17:33:21.000Z,4.5
2022-08-11T17:36:54.000Z,3.1
2022-08-11T17:40:27.000Z,5.2
2022-08-11T17:43:18.000Z,5
2022-08-11T17:46:51.000Z,4.2
2022-08-11T17:50:31.000Z,2.5
2022-08-11T17:54:03.000Z,5.1
2022-08-11T17:57:52.000Z,6.2
2022-08-11T18:01:31.000Z,4.9
2022-08-11T18:05:06.000Z,2.5
2022-08-11T18:08:39.000Z,3.2
2022-08-11T18:12:11.000Z,6.3
2022-08-11T18:15:44.000Z,3.5
2022-08-11T18:19:21.000Z,3
2022-08-11T18:22:14.000Z,5.9
2022-08-11T18:25:47.000Z,3.3
2022-08-11T18:29:20.000Z,4
2022-08-11T18:33:03.000Z,3.8
2022-08-11T18:37:16.000Z,6.3
2022-08-11T18:40:54.000Z,2.8
2022-08-11T18:44:28.000Z,3.1
2022-08-11T18:48:06.000Z,5.7
2022-08-11T18:52:02.000Z,3.5
2022-08-11T18:55:34.000Z,3.9
2022-08-11T18:59:07.000Z,4.1
2022-08-11T19:01:58.000Z,4.6
2022-08-11T19:05:42.000Z,3.1
2022-08-11T19:10:04.000Z,5.1
2022-08-11T19:13:42.000Z,3.9
2022-08-11T19:17:16.000Z,4.1
2022-08-11T19:21:10.000Z,5.1
2022-08-11T19:24:43.000Z,4.7
2022-08-11T19:28:16.000Z,6.3
2022-08-11T19:32:12.000Z,6.5
2022-08-11T19:36:09.000Z,5.4
2022-08-11T19:39:43.000Z,5.8
2022-08-11T19:42:34.000Z,5.4
2022-08-11T19:46:07.000Z,8.1
2022-08-11T19:49:39.000Z,4.6
2022-08-11T19:53:12.000Z,7.9
2022-08-11T19:56:45.000Z,5.6
2022-08-11T20:00:20.000Z,5.3
2022-08-11T20:04:12.000Z,3.8
2022-08-11T20:07:58.000Z,5.4
2022-08-11T20:12:04.000Z,5.7
2022-08-11T20:15:42.000Z,5.1
2022-08-11T20:19:14.000Z,6.4
2022-08-11T20:22:39.000Z,6.5
2022-08-11T20:26:12.000Z,4.1
2022-08-11T20:29:56.000Z,6.7
2022-08-11T20:33:29.000Z,5.4
2022-08-11T20:37:02.000Z,3.9
2022-08-11T20:40:34.000Z,4.6
2022-08-11T20:44:07.000Z,4.7
2022-08-11T20:47:55.000Z,5.3
2022-08-11T20:51:46.000Z,5.6
2022-08-11T20:55:19.000Z,4.9
2022-08-11T20:59:18.000Z,6.7
2022-08-11T21:02:10.000Z,5.2
2022-08-11T21:05:58.000Z,4.8
2022-08-11T21:09:38.000Z,5.4
2022-08-11T21:13:26.000Z,3.7
2022-08-11T21:17:04.000Z,5.2
2022-08-11T21:20:53.000Z,6.3
2022-08-11T21:24:27.000Z,4.6
2022-08-11T21:28:00.000Z,3.8
2022-08-11T21:31:33.000Z,5.5
2022-08-11T21:35:06.000Z,6.2
2022-08-11T21:38:39.000Z,4.7
2022-08-11T21:41:30.000Z,4.1
2022-08-11T21:45:03.000Z,5.2
2022-08-11T21:48:35.000Z,4.4
2022-08-11T21:52:08.000Z,3.9
2022-08-11T21:55:41.000Z,4.6
2022-08-11T21:59:14.000Z,6.3
2022-08-11T22:02:46.000Z,4.2
2022-08-11T22:06:19.000Z,6.4
2022-08-11T22:09:52.000Z,4.8
2022-08-11T22:13:31.000Z,5
2022-08-11T22:17:03.000Z,4.4
2022-08-11T22:19:55.000Z,5.6
2022-08-11T22:24:03.000Z,5.2
2022-08-11T22:27:37.000Z,6.6
2022-08-11T22:31:10.000Z,7
2022-08-11T22:34:43.000Z,5.7
2022-08-11T22:38:18.000Z,4.9
2022-08-11T22:42:01.000Z,6.1
2022-08-11T22:45:34.000Z,4.2
2022-08-11T22:49:07.000Z,4.3
2022-08-11T22:52:39.000Z,5
2022-08-11T22:56:12.000Z,7.3
2022-08-11T22:59:16.000Z,5.2
2022-08-11T23:02:49.000Z,5.5
2022-08-11T23:06:22.000Z,5.9
2022-08-11T23:09:54.000Z,8.9
2022-08-11T23:13:58.000Z,6.3
2022-08-11T23:17:33.000Z,4.5
2022-08-11T23:21:06.000Z,5
2022-08-11T23:24:49.000Z,5.7
2022-08-11T23:28:21.000Z,4.5
2022-08-11T23:31:54.000Z,6.1
2022-08-11T23:35:26.000Z,4.8
2022-08-11T23:42:54.000Z,5.8
2022-08-11T23:46:27.000Z,4.7
2022-08-11T23:49:59.000Z,4.2
2022-08-11T23:59:30.000Z,4.5
